Time;durP1;ratioP1;P1;durP2;ratioP2;P2;SDS_P1;SDS_P2;PMS_P1;PMS_P2;Temp;Humidity;BMP_temperature;BMP_pressure;BME280_temperature;BME280_humidity;BME280_pressure;Samples;Min_cycle;Max_cycle;Signal;HPM_P1;HPM_P2
2022/06/29 00:00:19;;;;;;;10.80;9.60;;;;;;;22.37;69.52;99669.23;103786;1273;138874;-68
2022/06/29 00:02:46;;;;;;;14.60;10.90;;;;;;;22.31;69.75;99667.24;103945;1273;23074;-68
2022/06/29 00:05:15;;;;;;;12.40;9.60;;;;;;;22.29;69.97;99668.55;103895;1273;139059;-70
2022/06/29 00:07:42;;;;;;;22.60;10.70;;;;;;;22.23;70.09;99668.64;103833;1273;22600;-68
2022/06/29 00:10:09;;;;;;;27.20;11.00;;;;;;;22.18;70.44;99668.50;103874;1273;139232;-68
2022/06/29 00:12:37;;;;;;;18.30;10.40;;;;;;;22.16;70.50;99668.50;103763;1273;24493;-69
2022/06/29 00:15:04;;;;;;;24.00;11.30;;;;;;;22.12;70.76;99662.60;103951;1273;25333;-69
2022/06/29 00:17:31;;;;;;;21.90;10.60;;;;;;;22.09;70.97;99664.46;103824;1273;139721;-70
2022/06/29 00:19:59;;;;;;;23.60;10.90;;;;;;;22.06;71.07;99665.05;103922;1273;25323;-68
2022/06/29 00:22:26;;;;;;;13.90;10.00;;;;;;;22.00;71.23;99661.90;103969;1275;138714;-68
2022/06/29 00:24:53;;;;;;;17.10;10.70;;;;;;;21.98;71.40;99661.02;103906;1274;22575;-69
2022/06/29 00:27:20;;;;;;;14.80;10.30;;;;;;;21.96;71.44;99662.11;103799;1274;23763;-69
2022/06/29 00:29:47;;;;;;;12.50;10.00;;;;;;;21.95;71.49;99670.44;103773;1273;138978;-70
2022/06/29 00:32:14;;;;;;;12.60;10.20;;;;;;;21.88;71.49;99669.72;103876;1274;23268;-70
2022/06/29 00:34:41;;;;;;;14.10;10.50;;;;;;;21.86;71.62;99674.31;103675;1274;138852;-69
2022/06/29 00:37:08;;;;;;;12.50;10.00;;;;;;;21.83;71.83;99675.71;103999;1276;22559;-67
2022/06/29 00:39:35;;;;;;;11.50;9.80;;;;;;;21.79;71.86;99678.98;103773;1273;25743;-67
2022/06/29 00:42:02;;;;;;;12.20;9.50;;;;;;;21.76;72.03;99673.95;103727;1273;138402;-66
2022/06/29 00:44:29;;;;;;;11.50;10.30;;;;;;;21.74;72.15;99678.29;103865;1273;22612;-67
2022/06/29 00:46:57;;;;;;;10.70;9.50;;;;;;;21.72;72.15;99674.31;103682;1273;140465;-67
2022/06/29 00:49:26;;;;;;;13.20;10.00;;;;;;;21.72;72.13;99676.82;103910;1273;22551;-67
2022/06/29 00:52:07;;;;;;;11.60;10.50;;;;;;;21.69;72.11;99679.73;103817;1273;22574;-67
2022/06/29 00:54:39;;;;;;;12.20;10.90;;;;;;;21.66;72.09;99682.73;103772;1273;22683;-67
2022/06/29 00:57:39;;;;;;;11.70;10.50;;;;;;;21.62;72.28;99676.70;103908;1273;22550;-68
2022/06/29 01:00:07;;;;;;;12.10;10.80;;;;;;;21.60;72.43;99679.55;103454;1280;138651;-68
2022/06/29 01:02:34;;;;;;;12.70;11.10;;;;;;;21.60;72.40;99679.16;103524;1280;22606;-68
2022/06/29 01:05:02;;;;;;;14.50;10.80;;;;;;;21.58;72.41;99684.59;103383;1280;139548;-68
2022/06/29 01:07:31;;;;;;;11.70;10.10;;;;;;;21.56;72.36;99677.29;103792;1280;22834;-67
2022/06/29 01:09:58;;;;;;;11.30;10.20;;;;;;;21.58;72.44;99676.41;106967;1280;22501;-67
2022/06/29 01:12:25;;;;;;;12.70;10.70;;;;;;;21.58;72.45;99675.95;106740;1280;139366;-68
2022/06/29 01:14:53;;;;;;;12.90;11.60;;;;;;;21.57;72.48;99678.85;106837;1280;22500;-68
2022/06/29 01:17:21;;;;;;;13.30;11.70;;;;;;;21.59;72.40;99674.66;106852;1280;140661;-68
2022/06/29 01:19:48;;;;;;;13.30;11.90;;;;;;;21.59;72.56;99676.08;106908;1279;22497;-67
2022/06/29 01:22:16;;;;;;;12.50;10.80;;;;;;;21.60;72.60;99683.98;106780;1280;140572;-67
2022/06/29 01:24:46;;;;;;;16.30;11.40;;;;;;;21.59;72.57;99681.90;106738;1280;22444;-67
2022/06/29 01:27:14;;;;;;;14.40;12.00;;;;;;;21.60;72.61;99678.73;106769;1280;22600;-68
2022/06/29 01:29:41;;;;;;;14.00;12.40;;;;;;;21.58;72.65;99678.95;106829;1280;138705;-67
2022/06/29 01:32:08;;;;;;;17.40;13.10;;;;;;;21.58;72.56;99684.37;106844;1280;22460;-68
2022/06/29 01:34:36;;;;;;;14.90;13.00;;;;;;;21.56;72.65;99692.59;106687;1280;138934;-68
2022/06/29 01:37:03;;;;;;;18.40;13.30;;;;;;;21.56;72.70;99690.59;107146;1274;23207;-68
2022/06/29 01:39:30;;;;;;;16.40;13.80;;;;;;;21.55;72.66;99684.52;107255;1273;22470;-68
2022/06/29 01:41:57;;;;;;;15.60;13.20;;;;;;;21.56;72.76;99693.54;107120;1273;139401;-68
2022/06/29 01:44:24;;;;;;;18.30;13.40;;;;;;;21.55;72.75;99695.77;107359;1273;22453;-68
2022/06/29 01:46:51;;;;;;;17.70;13.50;;;;;;;21.54;72.74;99699.86;107071;1273;140205;-69
2022/06/29 01:49:18;;;;;;;18.00;13.90;;;;;;;21.49;72.98;99704.10;107217;1273;23317;-68
2022/06/29 01:51:45;;;;;;;14.80;13.10;;;;;;;21.48;73.17;99705.39;107253;1273;22402;-67
2022/06/29 01:54:12;;;;;;;14.20;12.30;;;;;;;21.46;73.15;99703.55;107330;1273;138485;-68
2022/06/29 01:56:38;;;;;;;19.50;13.60;;;;;;;21.43;73.27;99694.05;107255;1273;22468;-68
2022/06/29 01:59:05;;;;;;;20.20;13.00;;;;;;;21.42;73.37;99699.24;107192;1274;139272;-67
2022/06/29 02:01:32;;;;;;;15.00;13.20;;;;;;;21.39;73.51;99698.70;107376;1274;23163;-66
2022/06/29 02:03:59;;;;;;;18.10;13.90;;;;;;;21.36;73.73;99704.86;107304;1273;24318;-65
2022/06/29 02:06:26;;;;;;;19.50;16.40;;;;;;;21.34;73.86;99714.69;107163;1274;139427;-67
2022/06/29 02:08:53;;;;;;;15.30;12.80;;;;;;;21.34;74.54;99717.02;107287;1273;22552;-66
2022/06/29 02:11:21;;;;;;;14.80;12.70;;;;;;;21.38;75.17;99720.66;107018;1273;139896;-67
2022/06/29 02:13:47;;;;;;;15.20;12.60;;;;;;;21.43;75.80;99727.59;107346;1274;22504;-67
2022/06/29 02:16:14;;;;;;;14.10;12.60;;;;;;;21.52;76.28;99731.07;107402;1274;139201;-67
2022/06/29 02:18:42;;;;;;;14.50;13.00;;;;;;;21.59;76.54;99728.15;107369;1273;22448;-67
2022/06/29 02:21:09;;;;;;;16.00;13.20;;;;;;;21.69;76.68;99733.27;107421;1273;22415;-67
2022/06/29 02:23:36;;;;;;;18.60;12.70;;;;;;;21.76;76.75;99731.08;107218;1273;139416;-68
2022/06/29 02:26:03;;;;;;;15.20;13.20;;;;;;;21.84;76.98;99740.47;107369;1273;22576;-67
2022/06/29 02:28:30;;;;;;;13.70;12.30;;;;;;;21.91;77.14;99748.69;107207;1273;139927;-68
2022/06/29 02:36:28;;;;;;;14.60;13.10;;;;;;;22.11;77.12;99741.48;107211;1273;139795;-67
2022/06/29 02:38:55;;;;;;;13.40;12.00;;;;;;;22.17;76.94;99740.54;107276;1273;22440;-66
2022/06/29 02:41:22;;;;;;;14.40;12.90;;;;;;;22.22;76.81;99740.05;107146;1273;139592;-68
2022/06/29 02:43:48;;;;;;;15.50;12.30;;;;;;;22.25;76.72;99741.58;107353;1273;22441;-67
2022/06/29 02:46:15;;;;;;;13.60;12.30;;;;;;;22.31;76.49;99745.59;105771;1274;139104;-67
2022/06/29 02:48:42;;;;;;;14.20;12.70;;;;;;;22.34;76.24;99740.83;104167;1273;23250;-68
2022/06/29 02:51:09;;;;;;;14.30;12.80;;;;;;;22.38;76.28;99745.89;104092;1275;22554;-68
2022/06/29 02:53:36;;;;;;;16.50;13.60;;;;;;;22.41;76.25;99737.36;103925;1273;138763;-69
2022/06/29 02:56:03;;;;;;;16.80;12.80;;;;;;;22.45;76.07;99737.71;104068;1273;22553;-68
2022/06/29 02:58:30;;;;;;;16.70;13.50;;;;;;;22.45;76.10;99737.39;104047;1274;139518;-69
2022/06/29 03:00:57;;;;;;;18.70;13.20;;;;;;;22.48;76.08;99743.79;104065;1273;22632;-69
2022/06/29 03:03:24;;;;;;;15.60;12.40;;;;;;;22.49;76.01;99745.59;104090;1274;22577;-68
2022/06/29 03:05:51;;;;;;;14.30;12.30;;;;;;;22.47;76.13;99737.81;103990;1273;140572;-69
2022/06/29 03:08:18;;;;;;;13.60;11.80;;;;;;;22.48;76.31;99741.23;104115;1274;23167;-68
2022/06/29 03:10:45;;;;;;;14.00;12.40;;;;;;;22.48;76.57;99739.35;104001;1274;140849;-68
2022/06/29 03:13:12;;;;;;;15.20;12.80;;;;;;;22.48;76.81;99743.10;104229;1273;24713;-69
2022/06/29 03:15:38;;;;;;;16.80;12.70;;;;;;;22.48;76.79;99743.48;104359;1273;25159;-66
2022/06/29 03:18:06;;;;;;;16.50;12.40;;;;;;;22.49;77.00;99739.97;103976;1274;140755;-66
2022/06/29 03:20:33;;;;;;;16.30;14.00;;;;;;;22.51;77.34;99741.99;103957;1275;22592;-66
2022/06/29 03:23:00;;;;;;;19.00;15.20;;;;;;;22.53;77.61;99741.63;103756;1273;140093;-68
2022/06/29 03:25:27;;;;;;;19.20;14.40;;;;;;;22.58;77.54;99738.58;103873;1274;22672;-67
2022/06/29 03:27:54;;;;;;;33.80;18.10;;;;;;;22.65;77.31;99740.13;104148;1273;22596;-67
2022/06/29 03:30:20;;;;;;;26.10;16.70;;;;;;;22.74;77.48;99737.63;103889;1276;139173;-66
2022/06/29 03:32:47;;;;;;;25.30;17.10;;;;;;;22.82;77.06;99734.12;104042;1276;24135;-66
2022/06/29 03:35:14;;;;;;;29.80;18.80;;;;;;;22.94;76.41;99734.30;104052;1275;140039;-65
2022/06/29 03:37:41;;;;;;;15.70;13.10;;;;;;;23.05;75.94;99733.98;104137;1273;24687;-66
2022/06/29 03:40:10;;;;;;;14.50;11.50;;;;;;;23.16;75.47;99734.80;103797;1273;139167;-66
2022/06/29 03:42:37;;;;;;;17.20;11.60;;;;;;;23.29;74.57;99734.11;104127;1273;26294;-66
2022/06/29 03:45:04;;;;;;;13.40;12.10;;;;;;;23.40;73.47;99733.69;104042;1275;25364;-69
2022/06/29 03:47:31;;;;;;;14.00;12.60;;;;;;;23.53;72.59;99735.34;104016;1273;138617;-66
2022/06/29 03:49:58;;;;;;;12.90;11.70;;;;;;;23.66;72.22;99733.73;104102;1275;22557;-66
2022/06/29 03:52:25;;;;;;;12.40;11.00;;;;;;;23.80;72.33;99735.10;103941;1276;140922;-66
2022/06/29 03:54:52;;;;;;;15.30;11.70;;;;;;;23.93;71.80;99732.39;104039;1276;23970;-67
2022/06/29 03:57:18;;;;;;;14.60;12.00;;;;;;;24.05;71.14;99732.25;104355;1274;22838;-67
2022/06/29 03:59:46;;;;;;;13.80;12.00;;;;;;;24.15;70.98;99731.88;104028;1276;139324;-67
2022/06/29 04:02:12;;;;;;;13.20;11.80;;;;;;;24.23;70.92;99727.65;103913;1275;22655;-67
2022/06/29 04:04:39;;;;;;;13.50;12.20;;;;;;;24.33;70.64;99721.02;103772;1273;138588;-67
2022/06/29 04:07:06;;;;;;;12.80;11.50;;;;;;;24.43;70.18;99722.02;104008;1274;25268;-67
2022/06/29 04:09:34;;;;;;;13.90;12.40;;;;;;;24.52;69.90;99714.86;104008;1273;27142;-66
2022/06/29 04:12:01;;;;;;;13.40;12.20;;;;;;;24.59;69.56;99709.98;104086;1273;139370;-66
2022/06/29 04:14:28;;;;;;;13.40;11.30;;;;;;;24.69;69.00;99717.25;107351;1274;22456;-66
2022/06/29 04:16:56;;;;;;;11.20;10.10;;;;;;;24.77;68.25;99718.39;107166;1273;140742;-67
2022/06/29 04:19:24;;;;;;;11.70;10.50;;;;;;;24.85;66.74;99714.36;107151;1273;23208;-67
2022/06/29 04:21:51;;;;;;;10.70;9.70;;;;;;;24.95;65.12;99708.11;107073;1276;24624;-68
2022/06/29 04:24:18;;;;;;;11.20;10.20;;;;;;;25.06;64.19;99704.96;107058;1274;138663;-67
2022/06/29 04:26:45;;;;;;;11.30;10.00;;;;;;;25.19;63.11;99710.69;107291;1273;22818;-66
2022/06/29 04:29:12;;;;;;;17.30;10.80;;;;;;;25.29;62.69;99712.91;107458;1274;140602;-66
2022/06/29 04:31:39;;;;;;;13.10;10.00;;;;;;;25.40;62.73;99713.73;107465;1273;22425;-67
2022/06/29 04:34:06;;;;;;;15.00;9.50;;;;;;;25.48;62.23;99706.88;107258;1273;22482;-68
2022/06/29 04:36:33;;;;;;;9.90;8.90;;;;;;;25.54;60.97;99708.34;107316;1273;23370;-68
2022/06/29 04:39:00;;;;;;;10.50;9.00;;;;;;;25.60;60.05;99706.95;107375;1274;22410;-68
2022/06/29 04:41:27;;;;;;;9.30;8.40;;;;;;;25.67;59.58;99709.02;107103;1273;137527;-66
2022/06/29 04:43:54;;;;;;;9.70;8.80;;;;;;;25.76;59.72;99710.38;107402;1274;22976;-67
2022/06/29 04:46:22;;;;;;;12.40;9.60;;;;;;;25.82;59.48;99711.19;107173;1274;138172;-68
2022/06/29 04:48:53;;;;;;;11.60;9.40;;;;;;;25.87;58.83;99709.56;107326;1273;23857;-68
2022/06/29 04:51:20;;;;;;;12.30;8.90;;;;;;;25.91;58.70;99703.47;107410;1273;22537;-68
2022/06/29 04:53:47;;;;;;;9.40;8.60;;;;;;;25.97;58.77;99697.57;107213;1273;139222;-68
2022/06/29 04:56:15;;;;;;;9.80;8.90;;;;;;;26.02;58.23;99699.63;107330;1274;22410;-68
2022/06/29 04:58:42;;;;;;;10.50;9.50;;;;;;;26.06;57.82;99695.91;107199;1273;137933;-68
2022/06/29 05:01:09;;;;;;;17.50;9.90;;;;;;;26.11;57.52;99697.16;107141;1273;22445;-68
2022/06/29 05:03:36;;;;;;;9.60;8.60;;;;;;;26.17;56.72;99700.83;107312;1274;22509;-69
2022/06/29 05:06:03;;;;;;;16.80;10.00;;;;;;;26.20;56.17;99701.88;107238;1274;139470;-69
2022/06/29 05:08:30;;;;;;;11.40;7.80;;;;;;;26.23;55.76;99698.59;107235;1274;22462;-68
2022/06/29 05:10:57;;;;;;;16.10;11.80;;;;;;;26.25;55.77;99698.18;107135;1274;139796;-68
2022/06/29 05:13:24;;;;;;;18.60;10.50;;;;;;;26.27;55.64;99702.64;107258;1273;22413;-68
2022/06/29 05:15:51;;;;;;;11.70;9.30;;;;;;;26.32;54.85;99704.08;107273;1273;22622;-68
2022/06/29 05:18:18;;;;;;;9.30;8.50;;;;;;;26.39;54.54;99701.70;107357;1274;138773;-65
2022/06/29 05:20:55;;;;;;;9.80;8.80;;;;;;;26.50;54.56;99701.65;107214;1274;22438;-66
2022/06/29 05:23:22;;;;;;;9.10;8.10;;;;;;;26.65;54.59;99698.46;107144;1274;137880;-66
2022/06/29 05:25:49;;;;;;;13.00;8.90;;;;;;;26.84;54.61;99699.09;106360;1274;23666;-65
2022/06/29 05:28:16;;;;;;;9.40;7.70;;;;;;;27.12;54.34;99703.05;103669;1276;140134;-67
2022/06/29 05:30:43;;;;;;;19.40;8.20;;;;;;;27.42;53.71;99700.67;103907;1275;22567;-65
2022/06/29 05:33:10;;;;;;;10.70;8.50;;;;;;;27.68;53.04;99697.03;103878;1273;24312;-66
2022/06/29 05:35:37;;;;;;;10.00;8.50;;;;;;;27.91;52.36;99698.63;103899;1274;137874;-66
2022/06/29 05:38:04;;;;;;;9.50;8.40;;;;;;;28.13;52.12;99697.70;103869;1274;24189;-66
2022/06/29 05:40:31;;;;;;;11.90;9.40;;;;;;;28.41;51.85;99704.49;103799;1276;139131;-66
2022/06/29 05:42:58;;;;;;;27.00;9.80;;;;;;;28.69;51.80;99707.39;103956;1275;22624;-66
2022/06/29 05:45:25;;;;;;;17.00;8.90;;;;;;;28.98;51.52;99707.90;103924;1274;22595;-65
2022/06/29 05:47:53;;;;;;;11.30;8.60;;;;;;;29.24;50.87;99712.78;103785;1275;138532;-65
2022/06/29 05:50:23;;;;;;;11.00;8.60;;;;;;;29.41;50.48;99710.89;103776;1275;22687;-65
2022/06/29 05:52:50;;;;;;;10.40;8.80;;;;;;;29.51;50.39;99712.23;103691;1275;140316;-66
2022/06/29 05:55:17;;;;;;;9.70;8.80;;;;;;;29.54;50.16;99712.84;103978;1274;23458;-66
2022/06/29 05:57:45;;;;;;;11.70;8.70;;;;;;;29.50;50.19;99719.45;103788;1276;26017;-65
2022/06/29 06:00:13;;;;;;;10.10;9.10;;;;;;;29.47;50.68;99720.19;103661;1274;139045;-65
2022/06/29 06:02:40;;;;;;;10.40;9.50;;;;;;;29.42;50.58;99718.52;103814;1275;25265;-65
2022/06/29 06:05:07;;;;;;;10.00;8.60;;;;;;;29.37;50.90;99720.77;103753;1275;137852;-66
2022/06/29 06:07:34;;;;;;;11.10;9.90;;;;;;;29.32;51.34;99720.42;103844;1276;25845;-65
2022/06/29 06:10:01;;;;;;;12.60;9.30;;;;;;;29.28;51.51;99724.07;103777;1275;24085;-67
2022/06/29 06:12:28;;;;;;;12.60;9.50;;;;;;;29.23;51.75;99726.16;103742;1275;138749;-66
2022/06/29 06:14:58;;;;;;;12.00;10.70;;;;;;;29.14;51.84;99726.81;103947;1274;24125;-65
2022/06/29 06:17:28;;;;;;;11.90;10.70;;;;;;;29.04;52.29;99725.30;103743;1275;139893;-65
2022/06/29 06:20:01;;;;;;;14.40;10.70;;;;;;;28.96;52.83;99723.57;104016;1274;23963;-65
2022/06/29 06:22:29;;;;;;;13.10;10.30;;;;;;;28.88;53.34;99722.02;103841;1274;139661;-65
2022/06/29 06:24:56;;;;;;;12.80;9.60;;;;;;;28.81;52.80;99722.38;103986;1274;23319;-65
2022/06/29 06:27:23;;;;;;;15.30;10.10;;;;;;;28.71;53.11;99722.89;104062;1274;22607;-65
2022/06/29 06:29:49;;;;;;;20.10;11.30;;;;;;;28.60;53.40;99716.45;103922;1275;139564;-65
2022/06/29 06:32:16;;;;;;;14.90;11.10;;;;;;;28.55;53.67;99711.64;103941;1274;23078;-65
2022/06/29 06:34:43;;;;;;;16.50;10.00;;;;;;;28.49;53.77;99703.11;103949;1274;139620;-65
2022/06/29 06:37:11;;;;;;;12.90;10.70;;;;;;;28.45;53.94;99698.09;104209;1274;23373;-66
2022/06/29 06:39:37;;;;;;;11.40;10.30;;;;;;;28.44;54.17;99696.30;104110;1274;25532;-66
2022/06/29 06:42:04;;;;;;;26.70;11.20;;;;;;;28.43;54.22;99692.75;103862;1274;139448;-66
2022/06/29 06:44:31;;;;;;;27.00;11.60;;;;;;;28.42;53.86;99692.82;103977;1274;22735;-66
2022/06/29 06:47:00;;;;;;;12.40;10.00;;;;;;;28.41;54.30;99685.36;103821;1275;137684;-66
2022/06/29 06:49:27;;;;;;;10.20;9.20;;;;;;;28.44;54.58;99688.20;103906;1275;22563;-66
2022/06/29 06:51:54;;;;;;;19.80;10.30;;;;;;;28.47;54.03;99686.02;104054;1274;23129;-66
2022/06/29 06:54:21;;;;;;;22.70;10.00;;;;;;;28.49;53.63;99683.41;104148;1274;139342;-66
2022/06/29 06:56:48;;;;;;;21.30;10.70;;;;;;;28.52;53.71;99685.64;104090;1275;23176;-65
2022/06/29 06:59:15;;;;;;;13.20;9.90;;;;;;;28.56;53.52;99684.50;103932;1275;139001;-66
2022/06/29 07:01:42;;;;;;;10.80;9.70;;;;;;;28.56;52.95;99685.14;103895;1275;25202;-67
2022/06/29 07:04:15;;;;;;;11.50;9.90;;;;;;;28.57;52.94;99681.46;103855;1274;139256;-67
2022/06/29 07:06:42;;;;;;;15.70;10.00;;;;;;;28.59;52.95;99678.61;105253;1274;24221;-66
2022/06/29 07:09:09;;;;;;;11.70;10.10;;;;;;;28.65;52.95;99675.60;103894;1275;23795;-66
2022/06/29 07:11:36;;;;;;;10.30;9.20;;;;;;;28.67;52.71;99673.16;103806;1274;140353;-66
2022/06/29 07:14:03;;;;;;;14.50;9.30;;;;;;;28.70;53.02;99673.13;104062;1274;22624;-66
2022/06/29 07:16:30;;;;;;;10.40;9.50;;;;;;;28.76;53.20;99674.98;103747;1274;137614;-66
2022/06/29 07:18:57;;;;;;;11.10;9.50;;;;;;;28.79;52.51;99672.34;103926;1275;23772;-66
2022/06/29 07:21:24;;;;;;;10.90;9.70;;;;;;;28.83;52.68;99668.95;103884;1274;23395;-65
2022/06/29 07:23:51;;;;;;;11.40;9.60;;;;;;;28.88;52.68;99665.98;103759;1274;138051;-65
2022/06/29 07:26:18;;;;;;;10.80;8.90;;;;;;;28.93;52.20;99666.14;103761;1277;25441;-66
2022/06/29 07:28:44;;;;;;;10.00;9.00;;;;;;;28.96;51.73;99670.85;103741;1274;137996;-66
2022/06/29 07:31:11;;;;;;;14.90;9.40;;;;;;;28.97;51.35;99671.82;104005;1274;27707;-66
2022/06/29 07:33:38;;;;;;;15.10;9.30;;;;;;;28.97;51.10;99672.55;103991;1274;24338;-65
2022/06/29 07:36:06;;;;;;;11.60;8.90;;;;;;;28.99;50.60;99669.91;104018;1274;139612;-65
2022/06/29 07:38:33;;;;;;;12.50;9.40;;;;;;;29.04;50.49;99675.44;103976;1277;22584;-65
2022/06/29 07:41:01;;;;;;;13.10;9.20;;;;;;;29.03;51.21;99668.28;103768;1275;137549;-64
2022/06/29 07:43:28;;;;;;;14.90;9.00;;;;;;;29.05;51.88;99670.64;103857;1275;22567;-65
2022/06/29 07:45:56;;;;;;;15.30;9.80;;;;;;;29.08;51.43;99669.48;103859;1275;25043;-65
2022/06/29 07:48:24;;;;;;;10.60;9.50;;;;;;;29.13;51.42;99671.41;107228;1274;138826;-65
2022/06/29 07:50:51;;;;;;;13.60;9.00;;;;;;;29.15;51.90;99667.82;107354;1274;22471;-65
2022/06/29 07:53:18;;;;;;;10.10;9.00;;;;;;;29.17;51.17;99667.13;107106;1275;140226;-66
2022/06/29 07:55:45;;;;;;;9.70;8.80;;;;;;;29.16;51.04;99666.55;107236;1277;23998;-65
2022/06/29 07:58:15;;;;;;;19.80;9.50;;;;;;;29.20;51.51;99665.17;107094;1275;139386;-65
2022/06/29 08:00:42;;;;;;;10.00;8.00;;;;;;;29.22;50.79;99668.34;107397;1274;26158;-66
2022/06/29 08:03:09;;;;;;;53.80;12.30;;;;;;;29.25;50.53;99660.75;107455;1274;23188;-65
2022/06/29 08:05:36;;;;;;;22.10;10.00;;;;;;;29.29;50.69;99660.89;107312;1274;139075;-66
2022/06/29 08:08:04;;;;;;;9.90;8.70;;;;;;;29.31;50.47;99652.88;107284;1274;22575;-65
2022/06/29 08:10:33;;;;;;;8.30;7.50;;;;;;;29.33;49.74;99656.36;107232;1274;138597;-66
2022/06/29 08:13:00;;;;;;;10.40;8.00;;;;;;;29.32;49.18;99655.86;107337;1275;22578;-66
2022/06/29 08:15:27;;;;;;;9.80;8.10;;;;;;;29.31;49.16;99654.33;107306;1275;22452;-66
2022/06/29 08:17:54;;;;;;;13.30;8.80;;;;;;;29.38;49.10;99653.23;107104;1274;139193;-66
2022/06/29 08:20:21;;;;;;;13.20;9.20;;;;;;;29.44;49.54;99651.65;107396;1274;22571;-66
2022/06/29 08:22:48;;;;;;;16.20;8.60;;;;;;;29.48;49.08;99650.98;107150;1274;138441;-66
2022/06/29 08:25:15;;;;;;;15.40;8.40;;;;;;;29.48;49.41;99653.55;107291;1274;23738;-65
2022/06/29 08:27:43;;;;;;;9.90;8.90;;;;;;;29.52;49.82;99654.09;107238;1274;24035;-66
2022/06/29 08:30:13;;;;;;;10.30;9.20;;;;;;;29.57;49.60;99657.52;107265;1274;138811;-65
2022/06/29 08:32:41;;;;;;;9.60;8.70;;;;;;;29.61;49.64;99656.59;107180;1274;22583;-66
2022/06/29 08:35:09;;;;;;;9.20;8.30;;;;;;;29.63;49.83;99653.73;107172;1274;139080;-66
2022/06/29 08:37:37;;;;;;;10.70;8.80;;;;;;;29.61;49.52;99656.84;107260;1275;22466;-64
2022/06/29 08:40:06;;;;;;;11.70;8.40;;;;;;;29.55;49.35;99658.06;107390;1276;22403;-65
2022/06/29 08:42:33;;;;;;;11.20;9.30;;;;;;;29.49;49.68;99658.70;107244;1274;138852;-64
2022/06/29 08:44:59;;;;;;;12.50;7.80;;;;;;;29.47;50.27;99660.51;107314;1274;22446;-69
2022/06/29 08:47:26;;;;;;;9.40;8.50;;;;;;;29.47;49.32;99663.48;107243;1275;138280;-66
2022/06/29 08:49:53;;;;;;;10.30;8.00;;;;;;;29.54;48.88;99664.54;107242;1274;22403;-66
2022/06/29 08:52:20;;;;;;;9.00;8.20;;;;;;;29.61;48.17;99664.30;107229;1275;139489;-66
2022/06/29 08:54:48;;;;;;;9.70;7.80;;;;;;;29.66;47.30;99661.48;107200;1274;22420;-65
2022/06/29 08:57:15;;;;;;;8.00;7.20;;;;;;;29.72;47.10;99660.11;107342;1276;23435;-65
2022/06/29 08:59:42;;;;;;;12.40;8.00;;;;;;;29.76;47.12;99657.10;107174;1274;138015;-65
2022/06/29 09:02:27;;;;;;;9.50;8.30;;;;;;;29.79;47.55;99656.59;107350;1274;22392;-65
2022/06/29 09:04:54;;;;;;;12.40;9.00;;;;;;;29.85;47.33;99655.77;107219;1274;137412;-65
2022/06/29 09:07:23;;;;;;;9.20;8.30;;;;;;;29.91;47.64;99656.95;107371;1274;23611;-65
2022/06/29 09:10:21;;;;;;;9.20;8.30;;;;;;;29.97;46.76;99652.31;107250;1275;23249;-65
2022/06/29 09:12:49;;;;;;;10.80;9.30;;;;;;;30.05;46.71;99652.55;107084;1278;25278;-66
2022/06/29 09:15:17;;;;;;;8.80;7.90;;;;;;;30.09;46.18;99654.13;107094;1277;22433;-61
2022/06/29 09:17:44;;;;;;;11.00;8.00;;;;;;;30.15;44.70;99658.91;106953;1278;139391;-61
2022/06/29 09:20:12;;;;;;;7.80;6.90;;;;;;;30.19;43.93;99658.88;107079;1278;23373;-61
2022/06/29 09:23:00;;;;;;;8.40;7.60;;;;;;;30.17;43.28;99654.05;106877;1279;137502;-61
2022/06/29 09:25:30;;;;;;;9.50;7.70;;;;;;;30.21;43.28;99651.83;107027;1278;23962;-61
2022/06/29 09:27:57;;;;;;;8.40;7.50;;;;;;;30.23;43.37;99644.48;107053;1277;22566;-62
2022/06/29 09:30:29;;;;;;;11.90;6.50;;;;;;;30.26;43.18;99646.10;106968;1278;138810;-62
2022/06/29 09:33:00;;;;;;;7.20;6.50;;;;;;;30.29;41.38;99643.33;106998;1280;22457;-62
2022/06/29 09:35:27;;;;;;;6.90;6.30;;;;;;;30.32;40.76;99638.53;106904;1277;139189;-61
2022/06/29 09:38:16;;;;;;;7.30;6.50;;;;;;;30.35;40.26;99637.27;107060;1280;23469;-62
2022/06/29 09:41:01;;;;;;;7.00;6.30;;;;;;;30.33;40.44;99636.59;106943;1278;138911;-61
2022/06/29 09:43:29;;;;;;;9.90;6.30;;;;;;;30.32;41.95;99637.55;107125;1278;22835;-61
2022/06/29 09:45:56;;;;;;;16.70;9.20;;;;;;;30.35;40.02;99635.02;106666;1278;139096;-63
2022/06/29 09:48:25;;;;;;;7.60;6.90;;;;;;;30.41;39.75;99631.63;107081;1280;139244;-61
2022/06/29 09:50:52;;;;;;;8.70;7.90;;;;;;;30.46;39.59;99622.35;107430;1274;22555;-62
2022/06/29 09:53:25;;;;;;;7.20;6.00;;;;;;;30.53;39.63;99621.13;107465;1274;22382;-62
2022/06/29 09:55:54;;;;;;;9.00;6.20;;;;;;;30.57;39.22;99620.86;106503;1274;346273;-61
2022/06/29 10:02:52;;;;;;;8.00;7.30;;;;;;;30.68;38.89;99609.37;106322;1286;139458;-61
2022/06/29 10:05:21;;;;;;;9.80;8.50;;;;;;;30.72;39.18;99608.83;107280;1274;22518;-62
2022/06/29 10:07:49;;;;;;;8.20;7.50;;;;;;;30.78;39.40;99609.75;107103;1276;137846;-60
2022/06/29 10:10:18;;;;;;;6.80;6.20;;;;;;;30.79;39.00;99609.84;107125;1276;22581;-62
2022/06/29 10:16:07;;;;;;;7.80;7.00;;;;;;;30.81;39.95;99609.45;107355;1276;22931;-59
2022/06/29 10:18:40;;;;;;;10.00;8.30;;;;;;;30.83;39.35;99604.58;107155;1273;138885;-60
2022/06/29 10:21:17;;;;;;;9.60;7.90;;;;;;;30.85;39.38;99600.16;107354;1273;22510;-59
2022/06/29 10:23:53;;;;;;;8.50;7.00;;;;;;;30.90;39.50;99598.57;107099;1276;22503;-59
2022/06/29 10:26:34;;;;;;;8.50;7.70;;;;;;;30.96;40.33;99597.97;107183;1273;138135;-60
2022/06/29 10:29:07;;;;;;;11.60;7.20;;;;;;;31.03;39.88;99587.55;107314;1274;22465;-60
2022/06/29 10:31:50;;;;;;;8.40;7.60;;;;;;;31.09;40.26;99578.60;107247;1274;137734;-60
2022/06/29 10:34:33;;;;;;;12.70;7.30;;;;;;;31.15;39.39;99570.44;107293;1275;22406;-60
2022/06/29 10:37:03;;;;;;;8.30;7.50;;;;;;;31.22;39.89;99568.86;107245;1273;138043;-60
2022/06/29 10:39:45;;;;;;;7.10;6.60;;;;;;;31.27;39.38;99565.67;107259;1274;22406;-60
2022/06/29 10:45:17;;;;;;;11.00;7.40;;;;;;;31.33;38.70;99553.94;107367;1273;23795;-60
2022/06/29 10:47:56;;;;;;;8.60;7.10;;;;;;;31.36;38.35;99548.64;107323;1273;22414;-60
2022/06/29 10:50:24;;;;;;;7.90;7.20;;;;;;;31.39;37.66;99546.33;107336;1273;139613;-61
2022/06/29 10:52:55;;;;;;;7.20;6.60;;;;;;;31.43;37.09;99540.07;107366;1273;24458;-60
2022/06/29 10:55:23;;;;;;;8.50;7.30;;;;;;;31.46;37.08;99539.98;107325;1273;137328;-61
2022/06/29 10:57:51;;;;;;;7.60;6.90;;;;;;;31.50;36.48;99539.59;107370;1273;22621;-60
2022/06/29 11:00:20;;;;;;;7.80;7.00;;;;;;;31.52;36.43;99541.21;107272;1274;22489;-61
2022/06/29 11:02:47;;;;;;;8.30;6.80;;;;;;;31.51;36.60;99543.94;107303;1274;137444;-61
2022/06/29 11:05:14;;;;;;;9.60;6.80;;;;;;;31.54;36.35;99551.67;107402;1274;23458;-61
2022/06/29 11:12:01;;;;;;;8.70;7.30;;;;;;;31.63;36.03;99541.07;107345;1274;22456;-60
2022/06/29 11:13:27;;;;;;;7.50;6.90;;;;;;;31.67;36.03;99535.70;107334;1273;137011;-61
2022/06/29 11:15:55;;;;;;;7.20;6.60;;;;;;;31.71;36.30;99538.39;107365;1273;22424;-61
2022/06/29 11:18:26;;;;;;;7.40;6.70;;;;;;;31.74;36.95;99527.45;107487;1273;22459;-61
2022/06/29 11:20:54;;;;;;;9.20;6.70;;;;;;;31.77;37.01;99517.06;107374;1273;138566;-61
2022/06/29 11:23:24;;;;;;;7.70;7.00;;;;;;;31.81;37.28;99514.48;107457;1273;23441;-61
2022/06/29 11:25:54;;;;;;;7.00;6.40;;;;;;;31.87;37.17;99502.18;107347;1273;139175;-61
2022/06/29 11:28:23;;;;;;;8.80;6.20;;;;;;;31.95;36.14;99493.64;107349;1274;22416;-61
2022/06/29 11:31:16;;;;;;;7.50;6.60;;;;;;;32.03;36.05;99494.21;107216;1274;137202;-61
2022/06/29 11:33:45;;;;;;;10.00;8.40;;;;;;;32.12;35.97;99497.51;107433;1273;22406;-61
2022/06/29 11:36:16;;;;;;;20.00;14.50;;;;;;;32.20;35.73;99505.25;107465;1273;22428;-61